sensor_id;sensor_type;location;lat;lon;timestamp;temperature;humidity
24011;DHT22;12217;50.792;4.372;2023-05-25T00:02:17;15.10;99.90
24011;DHT22;12217;50.792;4.372;2023-05-25T00:04:43;15.10;99.90
24011;DHT22;12217;50.792;4.372;2023-05-25T00:07:13;15.00;99.90
24011;DHT22;12217;50.792;4.372;2023-05-25T00:09:40;15.00;99.90
24011;DHT22;12217;50.792;4.372;2023-05-25T00:12:08;15.00;99.90
24011;DHT22;12217;50.792;4.372;2023-05-25T00:14:34;15.00;99.90
24011;DHT22;12217;50.792;4.372;2023-05-25T00:17:00;15.00;99.90
24011;DHT22;12217;50.792;4.372;2023-05-25T00:19:28;15.00;99.90
24011;DHT22;12217;50.792;4.372;2023-05-25T00:21:57;15.00;99.90
24011;DHT22;12217;50.792;4.372;2023-05-25T00:24:27;14.90;99.90
24011;DHT22;12217;50.792;4.372;2023-05-25T00:26:53;14.90;99.90
24011;DHT22;12217;50.792;4.372;2023-05-25T00:29:18;14.80;99.90
24011;DHT22;12217;50.792;4.372;2023-05-25T00:31:44;14.80;99.90
24011;DHT22;12217;50.792;4.372;2023-05-25T00:34:10;14.80;99.90
24011;DHT22;12217;50.792;4.372;2023-05-25T00:36:35;14.80;99.90
24011;DHT22;12217;50.792;4.372;2023-05-25T00:39:01;14.70;99.90
24011;DHT22;12217;50.792;4.372;2023-05-25T00:41:27;14.60;99.90
24011;DHT22;12217;50.792;4.372;2023-05-25T00:43:53;14.60;99.90
24011;DHT22;12217;50.792;4.372;2023-05-25T00:46:18;14.60;99.90
24011;DHT22;12217;50.792;4.372;2023-05-25T00:48:44;14.70;99.90
24011;DHT22;12217;50.792;4.372;2023-05-25T00:51:10;14.70;99.90
24011;DHT22;12217;50.792;4.372;2023-05-25T00:53:37;14.70;99.90
24011;DHT22;12217;50.792;4.372;2023-05-25T00:56:18;14.70;99.90
24011;DHT22;12217;50.792;4.372;2023-05-25T00:58:50;14.60;99.90
24011;DHT22;12217;50.792;4.372;2023-05-25T01:01:19;14.50;99.90
24011;DHT22;12217;50.792;4.372;2023-05-25T01:03:48;14.60;99.90
24011;DHT22;12217;50.792;4.372;2023-05-25T01:06:19;14.60;99.90
24011;DHT22;12217;50.792;4.372;2023-05-25T01:08:52;14.60;99.90
24011;DHT22;12217;50.792;4.372;2023-05-25T01:11:26;14.50;99.90
24011;DHT22;12217;50.792;4.372;2023-05-25T01:13:53;14.50;99.90
24011;DHT22;12217;50.792;4.372;2023-05-25T01:16:22;14.40;99.90
24011;DHT22;12217;50.792;4.372;2023-05-25T01:18:50;14.40;99.90
24011;DHT22;12217;50.792;4.372;2023-05-25T01:21:24;14.40;99.90
24011;DHT22;12217;50.792;4.372;2023-05-25T01:26:25;14.30;99.90
24011;DHT22;12217;50.792;4.372;2023-05-25T01:28:52;14.30;99.90
24011;DHT22;12217;50.792;4.372;2023-05-25T01:31:20;14.40;99.90
24011;DHT22;12217;50.792;4.372;2023-05-25T01:33:49;14.40;99.90
24011;DHT22;12217;50.792;4.372;2023-05-25T01:36:16;14.40;99.90
24011;DHT22;12217;50.792;4.372;2023-05-25T01:38:42;14.40;99.90
24011;DHT22;12217;50.792;4.372;2023-05-25T01:41:07;14.40;99.90
24011;DHT22;12217;50.792;4.372;2023-05-25T01:43:33;14.40;99.90
24011;DHT22;12217;50.792;4.372;2023-05-25T01:46:17;14.30;99.90
24011;DHT22;12217;50.792;4.372;2023-05-25T01:51:30;14.30;99.90
24011;DHT22;12217;50.792;4.372;2023-05-25T01:54:08;14.20;99.90
24011;DHT22;12217;50.792;4.372;2023-05-25T01:56:36;14.30;99.90
24011;DHT22;12217;50.792;4.372;2023-05-25T01:59:02;14.20;99.90
24011;DHT22;12217;50.792;4.372;2023-05-25T02:01:32;14.20;99.90
24011;DHT22;12217;50.792;4.372;2023-05-25T02:03:59;14.30;99.90
24011;DHT22;12217;50.792;4.372;2023-05-25T02:06:25;14.30;99.90
24011;DHT22;12217;50.792;4.372;2023-05-25T02:08:51;14.30;99.90
24011;DHT22;12217;50.792;4.372;2023-05-25T02:11:16;14.30;99.90
24011;DHT22;12217;50.792;4.372;2023-05-25T02:13:42;14.20;99.90
24011;DHT22;12217;50.792;4.372;2023-05-25T02:16:07;14.20;99.90
24011;DHT22;12217;50.792;4.372;2023-05-25T02:18:33;14.10;99.90
24011;DHT22;12217;50.792;4.372;2023-05-25T02:20:59;14.20;99.90
24011;DHT22;12217;50.792;4.372;2023-05-25T02:23:24;14.20;99.90
24011;DHT22;12217;50.792;4.372;2023-05-25T02:25:50;14.20;99.90
24011;DHT22;12217;50.792;4.372;2023-05-25T02:28:16;14.20;99.90
24011;DHT22;12217;50.792;4.372;2023-05-25T02:30:42;14.10;99.90
24011;DHT22;12217;50.792;4.372;2023-05-25T02:33:07;14.10;99.90
24011;DHT22;12217;50.792;4.372;2023-05-25T02:35:33;14.10;99.90
24011;DHT22;12217;50.792;4.372;2023-05-25T02:37:59;14.00;99.90
24011;DHT22;12217;50.792;4.372;2023-05-25T02:40:25;14.00;99.90
24011;DHT22;12217;50.792;4.372;2023-05-25T02:42:50;14.00;99.90
24011;DHT22;12217;50.792;4.372;2023-05-25T02:45:16;14.00;99.90
24011;DHT22;12217;50.792;4.372;2023-05-25T02:47:42;14.00;99.90
24011;DHT22;12217;50.792;4.372;2023-05-25T02:50:08;13.90;99.90
24011;DHT22;12217;50.792;4.372;2023-05-25T02:52:33;13.80;99.90
24011;DHT22;12217;50.792;4.372;2023-05-25T02:54:59;13.80;99.90
24011;DHT22;12217;50.792;4.372;2023-05-25T02:57:26;13.80;99.90
24011;DHT22;12217;50.792;4.372;2023-05-25T02:59:52;13.80;99.90
24011;DHT22;12217;50.792;4.372;2023-05-25T03:02:18;13.70;99.90
24011;DHT22;12217;50.792;4.372;2023-05-25T03:04:46;13.70;99.90
24011;DHT22;12217;50.792;4.372;2023-05-25T03:07:14;13.70;99.90
24011;DHT22;12217;50.792;4.372;2023-05-25T03:09:39;13.70;99.90
24011;DHT22;12217;50.792;4.372;2023-05-25T03:12:05;13.80;99.90
24011;DHT22;12217;50.792;4.372;2023-05-25T03:14:31;13.80;99.90
24011;DHT22;12217;50.792;4.372;2023-05-25T03:16:56;13.70;99.90
24011;DHT22;12217;50.792;4.372;2023-05-25T03:19:23;13.70;99.90
24011;DHT22;12217;50.792;4.372;2023-05-25T03:21:48;13.60;99.90
24011;DHT22;12217;50.792;4.372;2023-05-25T03:24:14;13.60;99.90
24011;DHT22;12217;50.792;4.372;2023-05-25T03:26:39;13.60;99.90
24011;DHT22;12217;50.792;4.372;2023-05-25T03:29:05;13.60;99.90
24011;DHT22;12217;50.792;4.372;2023-05-25T03:31:33;13.60;99.90
24011;DHT22;12217;50.792;4.372;2023-05-25T03:33:59;13.60;99.90
24011;DHT22;12217;50.792;4.372;2023-05-25T03:36:25;13.60;99.90
24011;DHT22;12217;50.792;4.372;2023-05-25T03:38:55;13.60;99.90
24011;DHT22;12217;50.792;4.372;2023-05-25T03:41:21;13.60;99.90
24011;DHT22;12217;50.792;4.372;2023-05-25T03:43:46;13.60;99.90
24011;DHT22;12217;50.792;4.372;2023-05-25T03:46:12;13.60;99.90
24011;DHT22;12217;50.792;4.372;2023-05-25T03:48:37;13.60;99.90
24011;DHT22;12217;50.792;4.372;2023-05-25T03:51:03;13.50;99.90
24011;DHT22;12217;50.792;4.372;2023-05-25T03:53:29;13.50;99.90
24011;DHT22;12217;50.792;4.372;2023-05-25T03:55:55;13.50;99.90
24011;DHT22;12217;50.792;4.372;2023-05-25T03:58:20;13.50;99.90
24011;DHT22;12217;50.792;4.372;2023-05-25T04:00:46;13.40;99.90
24011;DHT22;12217;50.792;4.372;2023-05-25T04:03:15;13.40;99.90
24011;DHT22;12217;50.792;4.372;2023-05-25T04:05:41;13.40;99.90
24011;DHT22;12217;50.792;4.372;2023-05-25T04:08:07;13.30;99.90
24011;DHT22;12217;50.792;4.372;2023-05-25T04:10:34;13.30;99.90
24011;DHT22;12217;50.792;4.372;2023-05-25T04:12:59;13.30;99.90
24011;DHT22;12217;50.792;4.372;2023-05-25T04:15:25;13.20;99.90
24011;DHT22;12217;50.792;4.372;2023-05-25T04:17:51;13.20;99.90
24011;DHT22;12217;50.792;4.372;2023-05-25T04:20:16;13.30;99.90
24011;DHT22;12217;50.792;4.372;2023-05-25T04:22:42;13.30;99.90
24011;DHT22;12217;50.792;4.372;2023-05-25T04:25:09;13.30;99.90
24011;DHT22;12217;50.792;4.372;2023-05-25T04:27:35;13.30;99.90
24011;DHT22;12217;50.792;4.372;2023-05-25T04:30:02;13.30;99.90
24011;DHT22;12217;50.792;4.372;2023-05-25T04:32:27;13.30;99.90
24011;DHT22;12217;50.792;4.372;2023-05-25T04:34:54;13.40;99.90
24011;DHT22;12217;50.792;4.372;2023-05-25T04:37:21;13.50;99.90
24011;DHT22;12217;50.792;4.372;2023-05-25T04:39:48;13.50;99.90
24011;DHT22;12217;50.792;4.372;2023-05-25T04:42:13;13.50;99.90
24011;DHT22;12217;50.792;4.372;2023-05-25T04:44:39;13.50;99.90
24011;DHT22;12217;50.792;4.372;2023-05-25T04:47:05;13.50;99.90
24011;DHT22;12217;50.792;4.372;2023-05-25T04:49:31;13.50;99.90
24011;DHT22;12217;50.792;4.372;2023-05-25T04:51:58;13.60;99.90
24011;DHT22;12217;50.792;4.372;2023-05-25T04:54:23;13.60;99.90
24011;DHT22;12217;50.792;4.372;2023-05-25T04:56:49;13.60;99.90
24011;DHT22;12217;50.792;4.372;2023-05-25T04:59:15;13.50;99.90
24011;DHT22;12217;50.792;4.372;2023-05-25T05:01:41;13.70;99.90
24011;DHT22;12217;50.792;4.372;2023-05-25T05:04:09;13.70;99.90
24011;DHT22;12217;50.792;4.372;2023-05-25T05:06:35;13.70;99.90
24011;DHT22;12217;50.792;4.372;2023-05-25T05:09:03;13.70;99.90
24011;DHT22;12217;50.792;4.372;2023-05-25T05:11:29;13.70;99.90
24011;DHT22;12217;50.792;4.372;2023-05-25T05:13:55;13.80;99.90
24011;DHT22;12217;50.792;4.372;2023-05-25T05:16:21;13.80;99.90
24011;DHT22;12217;50.792;4.372;2023-05-25T05:18:47;13.80;99.90
24011;DHT22;12217;50.792;4.372;2023-05-25T05:21:13;13.90;99.90
24011;DHT22;12217;50.792;4.372;2023-05-25T05:23:39;13.90;99.90
24011;DHT22;12217;50.792;4.372;2023-05-25T05:26:04;13.90;99.90
24011;DHT22;12217;50.792;4.372;2023-05-25T05:28:33;13.90;99.90
24011;DHT22;12217;50.792;4.372;2023-05-25T05:31:00;14.00;99.90
24011;DHT22;12217;50.792;4.372;2023-05-25T05:33:25;13.90;99.90
24011;DHT22;12217;50.792;4.372;2023-05-25T05:35:51;13.90;99.90
24011;DHT22;12217;50.792;4.372;2023-05-25T05:38:17;13.90;99.90
24011;DHT22;12217;50.792;4.372;2023-05-25T05:40:43;14.00;99.90
24011;DHT22;12217;50.792;4.372;2023-05-25T05:43:10;14.10;99.90
24011;DHT22;12217;50.792;4.372;2023-05-25T05:45:36;14.00;99.90
24011;DHT22;12217;50.792;4.372;2023-05-25T05:48:02;14.10;99.90
24011;DHT22;12217;50.792;4.372;2023-05-25T05:50:29;14.20;99.90
24011;DHT22;12217;50.792;4.372;2023-05-25T05:52:54;14.40;99.90
24011;DHT22;12217;50.792;4.372;2023-05-25T05:55:20;14.40;99.90
24011;DHT22;12217;50.792;4.372;2023-05-25T05:57:46;14.40;99.90
24011;DHT22;12217;50.792;4.372;2023-05-25T06:00:12;14.40;99.90
24011;DHT22;12217;50.792;4.372;2023-05-25T06:02:38;14.40;99.90
24011;DHT22;12217;50.792;4.372;2023-05-25T06:05:04;14.50;99.90
24011;DHT22;12217;50.792;4.372;2023-05-25T06:07:29;14.60;99.90
24011;DHT22;12217;50.792;4.372;2023-05-25T06:09:55;14.70;99.90
24011;DHT22;12217;50.792;4.372;2023-05-25T06:12:21;14.70;99.90
24011;DHT22;12217;50.792;4.372;2023-05-25T06:14:47;14.70;99.90
24011;DHT22;12217;50.792;4.372;2023-05-25T06:17:14;14.80;99.90
24011;DHT22;12217;50.792;4.372;2023-05-25T06:19:41;14.90;99.90
24011;DHT22;12217;50.792;4.372;2023-05-25T06:22:06;14.90;99.90
24011;DHT22;12217;50.792;4.372;2023-05-25T06:24:43;14.80;99.90
24011;DHT22;12217;50.792;4.372;2023-05-25T06:27:08;14.90;99.90
24011;DHT22;12217;50.792;4.372;2023-05-25T06:29:34;15.00;99.90
24011;DHT22;12217;50.792;4.372;2023-05-25T06:31:59;15.10;99.90
24011;DHT22;12217;50.792;4.372;2023-05-25T06:34:25;15.10;99.90
24011;DHT22;12217;50.792;4.372;2023-05-25T06:36:51;15.10;99.90
24011;DHT22;12217;50.792;4.372;2023-05-25T06:39:17;15.10;99.90
24011;DHT22;12217;50.792;4.372;2023-05-25T06:41:43;15.20;99.90
24011;DHT22;12217;50.792;4.372;2023-05-25T06:44:08;15.30;99.90
24011;DHT22;12217;50.792;4.372;2023-05-25T06:46:34;15.40;99.90
24011;DHT22;12217;50.792;4.372;2023-05-25T06:49:01;15.30;99.90
24011;DHT22;12217;50.792;4.372;2023-05-25T06:51:27;15.40;99.90
24011;DHT22;12217;50.792;4.372;2023-05-25T06:53:54;15.40;99.90
24011;DHT22;12217;50.792;4.372;2023-05-25T06:56:20;15.40;99.90
24011;DHT22;12217;50.792;4.372;2023-05-25T06:58:47;15.50;99.90
24011;DHT22;12217;50.792;4.372;2023-05-25T07:01:13;15.60;99.90
24011;DHT22;12217;50.792;4.372;2023-05-25T07:03:38;15.70;99.90
24011;DHT22;12217;50.792;4.372;2023-05-25T07:06:05;15.70;99.90
24011;DHT22;12217;50.792;4.372;2023-05-25T07:08:31;15.60;99.90
24011;DHT22;12217;50.792;4.372;2023-05-25T07:10:56;15.70;99.90
24011;DHT22;12217;50.792;4.372;2023-05-25T07:13:22;15.70;99.90
24011;DHT22;12217;50.792;4.372;2023-05-25T07:15:48;15.70;99.90
24011;DHT22;12217;50.792;4.372;2023-05-25T07:18:14;15.90;99.90
24011;DHT22;12217;50.792;4.372;2023-05-25T07:20:40;15.90;99.90
24011;DHT22;12217;50.792;4.372;2023-05-25T07:23:07;16.00;99.90
24011;DHT22;12217;50.792;4.372;2023-05-25T07:25:34;16.00;99.90
24011;DHT22;12217;50.792;4.372;2023-05-25T07:28:00;16.10;99.90
24011;DHT22;12217;50.792;4.372;2023-05-25T07:30:26;16.20;99.90
24011;DHT22;12217;50.792;4.372;2023-05-25T07:32:52;16.20;99.90
24011;DHT22;12217;50.792;4.372;2023-05-25T07:35:17;16.20;99.90
24011;DHT22;12217;50.792;4.372;2023-05-25T07:37:43;16.30;99.90
24011;DHT22;12217;50.792;4.372;2023-05-25T07:40:09;16.30;99.90
24011;DHT22;12217;50.792;4.372;2023-05-25T07:42:35;16.40;99.90
24011;DHT22;12217;50.792;4.372;2023-05-25T07:45:01;16.30;99.90
24011;DHT22;12217;50.792;4.372;2023-05-25T07:47:27;16.20;99.90
24011;DHT22;12217;50.792;4.372;2023-05-25T07:49:53;16.50;99.90
24011;DHT22;12217;50.792;4.372;2023-05-25T07:52:18;16.50;99.90
24011;DHT22;12217;50.792;4.372;2023-05-25T07:54:44;16.60;99.90
24011;DHT22;12217;50.792;4.372;2023-05-25T07:57:10;16.50;99.90
24011;DHT22;12217;50.792;4.372;2023-05-25T07:59:36;16.70;99.90
24011;DHT22;12217;50.792;4.372;2023-05-25T08:02:02;16.70;99.90
24011;DHT22;12217;50.792;4.372;2023-05-25T08:04:29;16.80;99.90
24011;DHT22;12217;50.792;4.372;2023-05-25T08:06:55;16.90;99.90
24011;DHT22;12217;50.792;4.372;2023-05-25T08:09:21;17.00;99.90
24011;DHT22;12217;50.792;4.372;2023-05-25T08:11:47;17.10;99.90
24011;DHT22;12217;50.792;4.372;2023-05-25T08:14:12;17.30;99.90
24011;DHT22;12217;50.792;4.372;2023-05-25T08:16:38;17.20;99.90
24011;DHT22;12217;50.792;4.372;2023-05-25T08:19:04;17.40;99.90
24011;DHT22;12217;50.792;4.372;2023-05-25T08:21:29;17.50;99.90
24011;DHT22;12217;50.792;4.372;2023-05-25T08:23:59;17.60;99.90
24011;DHT22;12217;50.792;4.372;2023-05-25T08:26:28;17.70;99.90
24011;DHT22;12217;50.792;4.372;2023-05-25T08:28:54;17.90;99.90
24011;DHT22;12217;50.792;4.372;2023-05-25T08:31:20;18.00;99.90
24011;DHT22;12217;50.792;4.372;2023-05-25T08:33:46;18.20;99.90
24011;DHT22;12217;50.792;4.372;2023-05-25T08:36:12;18.30;99.90
24011;DHT22;12217;50.792;4.372;2023-05-25T08:38:37;18.40;99.90
24011;DHT22;12217;50.792;4.372;2023-05-25T08:41:04;18.60;99.90
24011;DHT22;12217;50.792;4.372;2023-05-25T08:43:31;18.70;99.90
24011;DHT22;12217;50.792;4.372;2023-05-25T08:46:02;18.80;99.90
24011;DHT22;12217;50.792;4.372;2023-05-25T08:48:29;18.80;99.90
24011;DHT22;12217;50.792;4.372;2023-05-25T08:50:59;18.70;99.90
24011;DHT22;12217;50.792;4.372;2023-05-25T08:53:25;18.60;99.90
24011;DHT22;12217;50.792;4.372;2023-05-25T08:55:53;18.60;99.90
24011;DHT22;12217;50.792;4.372;2023-05-25T08:58:24;18.60;99.90
24011;DHT22;12217;50.792;4.372;2023-05-25T09:00:58;18.50;99.90
24011;DHT22;12217;50.792;4.372;2023-05-25T09:03:25;18.70;99.90
24011;DHT22;12217;50.792;4.372;2023-05-25T09:05:52;19.00;99.90
24011;DHT22;12217;50.792;4.372;2023-05-25T09:08:19;19.20;99.90
24011;DHT22;12217;50.792;4.372;2023-05-25T09:10:46;19.20;99.90
24011;DHT22;12217;50.792;4.372;2023-05-25T09:13:12;19.20;99.90
24011;DHT22;12217;50.792;4.372;2023-05-25T09:15:38;19.20;99.90
24011;DHT22;12217;50.792;4.372;2023-05-25T09:18:04;19.30;99.90
24011;DHT22;12217;50.792;4.372;2023-05-25T09:20:30;19.40;99.90
24011;DHT22;12217;50.792;4.372;2023-05-25T09:22:57;19.40;99.90
24011;DHT22;12217;50.792;4.372;2023-05-25T09:25:24;19.60;99.90
24011;DHT22;12217;50.792;4.372;2023-05-25T09:27:52;19.70;99.90
24011;DHT22;12217;50.792;4.372;2023-05-25T09:30:18;19.80;99.90
24011;DHT22;12217;50.792;4.372;2023-05-25T09:32:43;19.60;99.90
24011;DHT22;12217;50.792;4.372;2023-05-25T09:35:13;19.70;99.90
24011;DHT22;12217;50.792;4.372;2023-05-25T09:37:40;19.90;99.90
24011;DHT22;12217;50.792;4.372;2023-05-25T09:40:06;20.10;99.90
24011;DHT22;12217;50.792;4.372;2023-05-25T09:42:34;20.10;99.90
24011;DHT22;12217;50.792;4.372;2023-05-25T09:45:03;20.00;99.90
24011;DHT22;12217;50.792;4.372;2023-05-25T09:47:29;20.00;99.90
24011;DHT22;12217;50.792;4.372;2023-05-25T09:49:55;20.10;99.90
24011;DHT22;12217;50.792;4.372;2023-05-25T09:52:22;19.90;99.90
24011;DHT22;12217;50.792;4.372;2023-05-25T09:54:51;19.80;99.90
24011;DHT22;12217;50.792;4.372;2023-05-25T09:57:18;19.70;99.90
24011;DHT22;12217;50.792;4.372;2023-05-25T09:59:44;20.00;99.90
24011;DHT22;12217;50.792;4.372;2023-05-25T10:02:10;20.20;99.90
24011;DHT22;12217;50.792;4.372;2023-05-25T10:04:37;20.30;99.90
24011;DHT22;12217;50.792;4.372;2023-05-25T10:07:03;20.50;99.90
24011;DHT22;12217;50.792;4.372;2023-05-25T10:09:30;20.40;99.90
24011;DHT22;12217;50.792;4.372;2023-05-25T10:11:57;20.30;99.90
24011;DHT22;12217;50.792;4.372;2023-05-25T10:14:27;20.30;99.90
24011;DHT22;12217;50.792;4.372;2023-05-25T10:16:54;20.60;99.90
24011;DHT22;12217;50.792;4.372;2023-05-25T10:19:35;20.70;99.90
24011;DHT22;12217;50.792;4.372;2023-05-25T10:22:18;20.80;99.90
24011;DHT22;12217;50.792;4.372;2023-05-25T10:27:23;21.00;99.90
24011;DHT22;12217;50.792;4.372;2023-05-25T10:29:49;21.20;99.90
24011;DHT22;12217;50.792;4.372;2023-05-25T10:32:17;21.50;99.90
24011;DHT22;12217;50.792;4.372;2023-05-25T10:34:43;21.70;99.90
24011;DHT22;12217;50.792;4.372;2023-05-25T10:37:11;21.80;99.90
24011;DHT22;12217;50.792;4.372;2023-05-25T10:39:37;21.60;99.90
24011;DHT22;12217;50.792;4.372;2023-05-25T10:42:03;21.50;99.90
24011;DHT22;12217;50.792;4.372;2023-05-25T10:44:29;21.50;99.90
24011;DHT22;12217;50.792;4.372;2023-05-25T10:46:58;21.40;99.90
24011;DHT22;12217;50.792;4.372;2023-05-25T10:49:31;21.30;99.90
24011;DHT22;12217;50.792;4.372;2023-05-25T10:52:00;21.50;99.90
24011;DHT22;12217;50.792;4.372;2023-05-25T10:54:28;21.80;99.90
24011;DHT22;12217;50.792;4.372;2023-05-25T10:57:12;21.90;99.90
24011;DHT22;12217;50.792;4.372;2023-05-25T10:59:42;22.10;99.90
24011;DHT22;12217;50.792;4.372;2023-05-25T11:02:10;22.20;99.90
24011;DHT22;12217;50.792;4.372;2023-05-25T11:04:36;22.20;99.90
24011;DHT22;12217;50.792;4.372;2023-05-25T11:09:28;22.80;99.90
24011;DHT22;12217;50.792;4.372;2023-05-25T11:14:27;22.90;99.90
24011;DHT22;12217;50.792;4.372;2023-05-25T11:17:17;22.90;99.90
24011;DHT22;12217;50.792;4.372;2023-05-25T11:24:52;22.80;99.90
24011;DHT22;12217;50.792;4.372;2023-05-25T11:27:26;22.90;99.90
24011;DHT22;12217;50.792;4.372;2023-05-25T11:29:53;23.20;99.90
24011;DHT22;12217;50.792;4.372;2023-05-25T11:32:19;23.50;99.90
24011;DHT22;12217;50.792;4.372;2023-05-25T11:34:51;23.60;99.90
24011;DHT22;12217;50.792;4.372;2023-05-25T11:37:19;23.70;99.90
24011;DHT22;12217;50.792;4.372;2023-05-25T11:39:49;23.80;99.90
24011;DHT22;12217;50.792;4.372;2023-05-25T11:42:16;23.60;99.90
24011;DHT22;12217;50.792;4.372;2023-05-25T11:44:44;23.40;99.90
24011;DHT22;12217;50.792;4.372;2023-05-25T11:47:10;23.50;99.90
24011;DHT22;12217;50.792;4.372;2023-05-25T11:49:45;23.50;99.90
24011;DHT22;12217;50.792;4.372;2023-05-25T11:52:21;23.60;99.90
24011;DHT22;12217;50.792;4.372;2023-05-25T11:54:48;23.60;99.90
24011;DHT22;12217;50.792;4.372;2023-05-25T11:57:15;23.30;99.90
24011;DHT22;12217;50.792;4.372;2023-05-25T11:59:47;23.20;99.90
24011;DHT22;12217;50.792;4.372;2023-05-25T12:02:14;23.40;99.90
24011;DHT22;12217;50.792;4.372;2023-05-25T12:04:39;23.50;99.90
24011;DHT22;12217;50.792;4.372;2023-05-25T12:07:07;23.40;99.90
24011;DHT22;12217;50.792;4.372;2023-05-25T12:09:33;23.60;99.90
24011;DHT22;12217;50.792;4.372;2023-05-25T12:11:59;23.70;99.90
24011;DHT22;12217;50.792;4.372;2023-05-25T12:14:27;23.70;99.90
24011;DHT22;12217;50.792;4.372;2023-05-25T12:16:53;23.90;99.90
24011;DHT22;12217;50.792;4.372;2023-05-25T12:19:20;23.80;99.90
24011;DHT22;12217;50.792;4.372;2023-05-25T12:21:46;23.40;99.90
24011;DHT22;12217;50.792;4.372;2023-05-25T12:24:16;23.40;99.90
24011;DHT22;12217;50.792;4.372;2023-05-25T12:26:50;23.70;99.90
24011;DHT22;12217;50.792;4.372;2023-05-25T12:29:21;23.80;99.90
24011;DHT22;12217;50.792;4.372;2023-05-25T12:31:47;23.90;99.90
24011;DHT22;12217;50.792;4.372;2023-05-25T12:34:15;23.80;99.90
24011;DHT22;12217;50.792;4.372;2023-05-25T12:36:54;23.80;99.90
24011;DHT22;12217;50.792;4.372;2023-05-25T12:41:56;23.90;99.90
24011;DHT22;12217;50.792;4.372;2023-05-25T12:44:25;24.10;99.90
24011;DHT22;12217;50.792;4.372;2023-05-25T12:46:52;24.10;99.90
24011;DHT22;12217;50.792;4.372;2023-05-25T12:51:53;23.50;99.90
24011;DHT22;12217;50.792;4.372;2023-05-25T12:54:51;23.20;99.90
24011;DHT22;12217;50.792;4.372;2023-05-25T12:57:17;23.20;99.90
24011;DHT22;12217;50.792;4.372;2023-05-25T12:59:44;23.30;99.90
24011;DHT22;12217;50.792;4.372;2023-05-25T13:02:11;23.50;99.90
24011;DHT22;12217;50.792;4.372;2023-05-25T13:04:39;23.90;99.90
24011;DHT22;12217;50.792;4.372;2023-05-25T13:07:06;23.90;99.90
24011;DHT22;12217;50.792;4.372;2023-05-25T13:09:33;23.90;99.30
24011;DHT22;12217;50.792;4.372;2023-05-25T13:11:58;23.90;99.90
24011;DHT22;12217;50.792;4.372;2023-05-25T13:14:26;23.70;99.90
24011;DHT22;12217;50.792;4.372;2023-05-25T13:16:52;23.70;99.90
24011;DHT22;12217;50.792;4.372;2023-05-25T13:19:20;23.90;99.90
24011;DHT22;12217;50.792;4.372;2023-05-25T13:21:46;24.20;99.20
24011;DHT22;12217;50.792;4.372;2023-05-25T13:24:14;24.30;98.20
24011;DHT22;12217;50.792;4.372;2023-05-25T13:26:41;24.50;98.60
24011;DHT22;12217;50.792;4.372;2023-05-25T13:29:06;24.50;98.00
24011;DHT22;12217;50.792;4.372;2023-05-25T13:31:32;24.20;97.50
24011;DHT22;12217;50.792;4.372;2023-05-25T13:33:57;24.20;97.70
24011;DHT22;12217;50.792;4.372;2023-05-25T13:36:24;24.20;98.60
24011;DHT22;12217;50.792;4.372;2023-05-25T13:38:49;24.40;99.00
24011;DHT22;12217;50.792;4.372;2023-05-25T13:41:15;24.40;99.10
24011;DHT22;12217;50.792;4.372;2023-05-25T13:43:42;24.50;98.60
24011;DHT22;12217;50.792;4.372;2023-05-25T13:46:07;24.70;97.60
24011;DHT22;12217;50.792;4.372;2023-05-25T13:48:33;24.60;97.80
24011;DHT22;12217;50.792;4.372;2023-05-25T13:50:59;24.60;97.70
24011;DHT22;12217;50.792;4.372;2023-05-25T13:53:24;24.30;98.00
24011;DHT22;12217;50.792;4.372;2023-05-25T13:55:50;24.20;97.60
24011;DHT22;12217;50.792;4.372;2023-05-25T13:58:16;24.10;98.10
24011;DHT22;12217;50.792;4.372;2023-05-25T14:00:42;24.20;98.00
24011;DHT22;12217;50.792;4.372;2023-05-25T14:03:07;24.10;97.00
24011;DHT22;12217;50.792;4.372;2023-05-25T14:05:33;24.00;97.80
24011;DHT22;12217;50.792;4.372;2023-05-25T14:07:58;24.00;97.70
24011;DHT22;12217;50.792;4.372;2023-05-25T14:10:27;23.90;98.10
24011;DHT22;12217;50.792;4.372;2023-05-25T14:12:52;23.80;97.50
24011;DHT22;12217;50.792;4.372;2023-05-25T14:15:18;23.60;98.20
24011;DHT22;12217;50.792;4.372;2023-05-25T14:17:43;23.60;97.90
24011;DHT22;12217;50.792;4.372;2023-05-25T14:20:09;23.90;98.90
24011;DHT22;12217;50.792;4.372;2023-05-25T14:22:39;24.30;98.30
24011;DHT22;12217;50.792;4.372;2023-05-25T14:25:06;24.30;97.70
24011;DHT22;12217;50.792;4.372;2023-05-25T14:27:31;24.40;98.10
24011;DHT22;12217;50.792;4.372;2023-05-25T14:29:57;24.50;97.80
24011;DHT22;12217;50.792;4.372;2023-05-25T14:32:22;24.40;97.50
24011;DHT22;12217;50.792;4.372;2023-05-25T14:34:48;24.40;96.70
24011;DHT22;12217;50.792;4.372;2023-05-25T14:37:13;24.40;96.50
24011;DHT22;12217;50.792;4.372;2023-05-25T14:39:39;24.10;97.90
24011;DHT22;12217;50.792;4.372;2023-05-25T14:42:05;24.30;97.00
24011;DHT22;12217;50.792;4.372;2023-05-25T14:44:30;24.30;96.90
24011;DHT22;12217;50.792;4.372;2023-05-25T14:46:56;24.30;97.10
24011;DHT22;12217;50.792;4.372;2023-05-25T14:49:22;24.30;96.60
24011;DHT22;12217;50.792;4.372;2023-05-25T14:51:51;24.30;96.70
24011;DHT22;12217;50.792;4.372;2023-05-25T14:54:17;24.30;97.00
24011;DHT22;12217;50.792;4.372;2023-05-25T14:56:43;24.20;97.50
24011;DHT22;12217;50.792;4.372;2023-05-25T14:59:08;24.20;98.10
24011;DHT22;12217;50.792;4.372;2023-05-25T15:01:34;24.10;97.00
24011;DHT22;12217;50.792;4.372;2023-05-25T15:04:00;24.20;96.80
24011;DHT22;12217;50.792;4.372;2023-05-25T15:06:25;24.40;97.90
24011;DHT22;12217;50.792;4.372;2023-05-25T15:08:51;24.50;96.70
24011;DHT22;12217;50.792;4.372;2023-05-25T15:11:17;24.20;96.30
24011;DHT22;12217;50.792;4.372;2023-05-25T15:13:43;24.00;96.50
24011;DHT22;12217;50.792;4.372;2023-05-25T15:16:15;23.70;97.20
24011;DHT22;12217;50.792;4.372;2023-05-25T15:18:42;23.70;97.90
24011;DHT22;12217;50.792;4.372;2023-05-25T15:21:08;23.70;97.10
24011;DHT22;12217;50.792;4.372;2023-05-25T15:23:33;23.60;97.40
24011;DHT22;12217;50.792;4.372;2023-05-25T15:25:59;23.80;98.80
24011;DHT22;12217;50.792;4.372;2023-05-25T15:28:33;24.10;98.30
24011;DHT22;12217;50.792;4.372;2023-05-25T15:30:58;24.10;98.20
24011;DHT22;12217;50.792;4.372;2023-05-25T15:33:24;24.00;97.50
24011;DHT22;12217;50.792;4.372;2023-05-25T15:35:50;24.10;96.90
24011;DHT22;12217;50.792;4.372;2023-05-25T15:38:16;24.00;97.50
24011;DHT22;12217;50.792;4.372;2023-05-25T15:40:42;23.90;96.80
24011;DHT22;12217;50.792;4.372;2023-05-25T15:43:07;24.00;97.40
24011;DHT22;12217;50.792;4.372;2023-05-25T15:45:33;24.10;97.60
24011;DHT22;12217;50.792;4.372;2023-05-25T15:47:58;24.00;96.20
24011;DHT22;12217;50.792;4.372;2023-05-25T15:50:24;23.90;97.30
24011;DHT22;12217;50.792;4.372;2023-05-25T15:52:50;23.90;96.70